Time;durP1;ratioP1;P1;durP2;ratioP2;P2;SDS_P1;SDS_P2;PMS_P1;PMS_P2;Temp;Humidity;BMP_temperature;BMP_pressure;BME280_temperature;BME280_humidity;BME280_pressure;Samples;Min_cycle;Max_cycle;Signal;HPM_P1;HPM_P2
2021/06/17 00:01:49;;;;;;;8.82;6.25;;;;;;;;;;5049912;28;20383;-65
2021/06/17 00:04:14;;;;;;;8.82;5.53;;;;;;;;;;5049662;28;20075;-65
2021/06/17 00:06:40;;;;;;;7.93;5.70;;;;;;;;;;5049585;28;20023;-66
2021/06/17 00:09:05;;;;;;;9.23;5.85;;;;;;;;;;5014751;28;20314;-65
2021/06/17 00:11:31;;;;;;;11.13;6.75;;;;;;;;;;5046096;28;20292;-65
2021/06/17 00:13:56;;;;;;;10.90;6.13;;;;;;;;;;5050033;28;20024;-65
2021/06/17 00:16:22;;;;;;;11.13;5.97;;;;;;;;;;5049194;28;20264;-65
2021/06/17 00:18:48;;;;;;;9.85;5.95;;;;;;;;;;5049212;28;20360;-65
2021/06/17 00:21:13;;;;;;;10.77;6.18;;;;;;;;;;5049329;28;20120;-65
2021/06/17 00:23:38;;;;;;;7.82;5.78;;;;;;;;;;5049922;28;20019;-66
2021/06/17 00:26:03;;;;;;;16.70;5.73;;;;;;;;;;5049297;28;20021;-65
2021/06/17 00:28:29;;;;;;;9.25;5.70;;;;;;;;;;5050129;28;20554;-65
2021/06/17 00:30:54;;;;;;;10.63;6.43;;;;;;;;;;5050185;28;20032;-66
2021/06/17 00:33:20;;;;;;;10.97;5.43;;;;;;;;;;5049256;28;20387;-66
2021/06/17 00:35:45;;;;;;;10.02;5.88;;;;;;;;;;5049144;28;20298;-67
2021/06/17 00:38:10;;;;;;;7.85;5.88;;;;;;;;;;5048663;28;20025;-66
2021/06/17 00:40:36;;;;;;;12.93;6.38;;;;;;;;;;5041732;28;20094;-65
2021/06/17 00:43:02;;;;;;;8.63;5.90;;;;;;;;;;5050009;28;20028;-65
2021/06/17 00:45:32;;;;;;;7.35;5.45;;;;;;;;;;5049227;28;20510;-65
2021/06/17 00:47:58;;;;;;;11.88;6.35;;;;;;;;;;5043519;28;20482;-65
2021/06/17 00:50:24;;;;;;;10.95;5.97;;;;;;;;;;5049631;28;20060;-67
2021/06/17 00:52:50;;;;;;;6.78;5.47;;;;;;;;;;5049883;28;20025;-65
2021/06/17 00:55:16;;;;;;;8.35;6.35;;;;;;;;;;5048242;28;20394;-65
2021/06/17 00:57:41;;;;;;;11.90;5.60;;;;;;;;;;5049330;28;20090;-67
2021/06/17 01:00:08;;;;;;;9.07;5.50;;;;;;;;;;5069576;28;20459;-65
2021/06/17 01:02:33;;;;;;;10.40;5.22;;;;;;;;;;5056559;28;20109;-65
2021/06/17 01:04:59;;;;;;;10.15;5.35;;;;;;;;;;5030094;28;20108;-65
2021/06/17 01:07:32;;;;;;;7.68;5.65;;;;;;;;;;5052316;28;20028;-66
2021/06/17 01:10:17;;;;;;;7.50;4.88;;;;;;;;;;5054078;28;20028;-65
2021/06/17 01:13:15;;;;;;;7.43;5.28;;;;;;;;;;5052507;28;20033;-65
2021/06/17 01:15:44;;;;;;;9.93;5.35;;;;;;;;;;4998844;28;20042;-65
2021/06/17 01:18:14;;;;;;;13.07;4.53;;;;;;;;;;5052814;28;20025;-66
2021/06/17 01:20:39;;;;;;;;;;;;;;;;;;5052887;28;20099;-66
2021/06/17 01:23:13;;;;;;;8.60;4.90;;;;;;;;;;5042877;28;19913;-66
2021/06/17 01:25:41;;;;;;;9.32;5.30;;;;;;;;;;5037551;28;20028;-66
2021/06/17 01:28:11;;;;;;;11.60;5.68;;;;;;;;;;5052815;28;20108;-65
2021/06/17 01:30:46;;;;;;;9.10;4.82;;;;;;;;;;5053384;28;20086;-65
2021/06/17 01:33:12;;;;;;;7.40;5.28;;;;;;;;;;5053247;28;20033;-65
2021/06/17 01:35:40;;;;;;;9.70;5.30;;;;;;;;;;5052682;28;20438;-65
2021/06/17 01:38:06;;;;;;;9.05;5.50;;;;;;;;;;5053047;28;20047;-65
2021/06/17 01:40:33;;;;;;;12.13;4.78;;;;;;;;;;5051998;28;20078;-65
2021/06/17 01:42:58;;;;;;;7.68;5.22;;;;;;;;;;5052590;28;20021;-65
2021/06/17 01:45:24;;;;;;;11.70;5.30;;;;;;;;;;5052690;28;20395;-65
2021/06/17 01:47:51;;;;;;;11.23;5.10;;;;;;;;;;5052405;28;20475;-65
2021/06/17 01:50:17;;;;;;;7.25;4.88;;;;;;;;;;5052351;28;20029;-65
2021/06/17 01:52:43;;;;;;;13.00;5.35;;;;;;;;;;5051278;28;20017;-65
2021/06/17 01:55:09;;;;;;;7.13;5.35;;;;;;;;;;5052092;28;20395;-66
2021/06/17 01:57:34;;;;;;;7.88;5.45;;;;;;;;;;5051010;28;20021;-65
2021/06/17 02:00:00;;;;;;;8.35;5.20;;;;;;;;;;5052696;28;20024;-65
2021/06/17 02:02:28;;;;;;;7.10;5.38;;;;;;;;;;5051288;28;20055;-65
2021/06/17 02:04:53;;;;;;;8.07;5.55;;;;;;;;;;5034391;28;20024;-65
2021/06/17 02:07:22;;;;;;;7.68;5.38;;;;;;;;;;5052199;28;20025;-65
2021/06/17 02:09:49;;;;;;;7.03;5.45;;;;;;;;;;5051489;28;20029;-65
2021/06/17 02:12:14;;;;;;;6.40;5.13;;;;;;;;;;5052232;28;20036;-65
2021/06/17 02:14:40;;;;;;;13.77;5.40;;;;;;;;;;5051775;28;20029;-66
2021/06/17 02:17:05;;;;;;;14.65;5.32;;;;;;;;;;5052390;28;20295;-66
2021/06/17 02:19:32;;;;;;;13.20;6.35;;;;;;;;;;5052078;28;20021;-65
2021/06/17 02:21:59;;;;;;;8.35;5.75;;;;;;;;;;5052018;28;20021;-65
2021/06/17 02:24:26;;;;;;;11.30;5.50;;;;;;;;;;5051385;28;20104;-65
2021/06/17 02:26:55;;;;;;;8.05;5.32;;;;;;;;;;5051665;28;20396;-66
2021/06/17 02:29:21;;;;;;;12.23;5.75;;;;;;;;;;5051456;28;20090;-66
2021/06/17 02:31:48;;;;;;;11.23;5.68;;;;;;;;;;5051737;28;20035;-65
2021/06/17 02:34:13;;;;;;;8.75;5.35;;;;;;;;;;5051562;28;20017;-65
2021/06/17 02:36:43;;;;;;;9.50;5.35;;;;;;;;;;5051364;28;20023;-65
2021/06/17 02:39:10;;;;;;;9.30;5.57;;;;;;;;;;5051859;28;20053;-65
2021/06/17 02:41:37;;;;;;;9.13;5.60;;;;;;;;;;5051616;28;20028;-66
2021/06/17 02:44:03;;;;;;;12.07;5.50;;;;;;;;;;5033483;28;20394;-65
2021/06/17 02:46:28;;;;;;;8.55;6.00;;;;;;;;;;5050832;28;20021;-65
2021/06/17 02:48:54;;;;;;;17.42;6.15;;;;;;;;;;5051823;28;20530;-65
2021/06/17 02:51:20;;;;;;;9.20;5.43;;;;;;;;;;5050895;28;20482;-64
2021/06/17 02:53:45;;;;;;;9.00;5.43;;;;;;;;;;5047250;28;20032;-65
2021/06/17 02:56:11;;;;;;;8.40;5.50;;;;;;;;;;5058671;28;20040;-65
2021/06/17 02:58:39;;;;;;;12.73;6.70;;;;;;;;;;5050914;28;20279;-66
2021/06/17 03:01:04;;;;;;;9.63;6.38;;;;;;;;;;5051191;28;20074;-65
2021/06/17 03:03:33;;;;;;;11.32;5.70;;;;;;;;;;5051324;28;20100;-65
2021/06/17 03:06:08;;;;;;;8.68;5.82;;;;;;;;;;5050946;28;20357;-65
2021/06/17 03:08:35;;;;;;;10.05;5.78;;;;;;;;;;5052016;28;20352;-66
2021/06/17 03:11:03;;;;;;;9.10;6.07;;;;;;;;;;5048544;28;20411;-65
2021/06/17 03:13:31;;;;;;;8.70;6.03;;;;;;;;;;5051422;28;20033;-65
2021/06/17 03:15:56;;;;;;;11.93;5.85;;;;;;;;;;5050750;28;20096;-65
2021/06/17 03:18:22;;;;;;;10.80;5.83;;;;;;;;;;5051190;28;20507;-65
2021/06/17 03:20:48;;;;;;;11.15;6.55;;;;;;;;;;5050402;28;20812;-66
2021/06/17 03:23:15;;;;;;;8.65;6.13;;;;;;;;;;5050980;28;20021;-65
2021/06/17 03:25:41;;;;;;;9.32;6.20;;;;;;;;;;5048762;28;20099;-65
2021/06/17 03:28:07;;;;;;;9.45;5.95;;;;;;;;;;5050250;28;20029;-65
2021/06/17 03:30:33;;;;;;;9.25;6.55;;;;;;;;;;5050331;28;20104;-65
2021/06/17 03:32:59;;;;;;;10.90;6.50;;;;;;;;;;5050942;28;20103;-65
2021/06/17 03:35:28;;;;;;;8.70;6.10;;;;;;;;;;5050573;28;20052;-64
2021/06/17 03:37:54;;;;;;;11.70;6.03;;;;;;;;;;5050743;28;20029;-65
2021/06/17 03:40:20;;;;;;;8.68;6.60;;;;;;;;;;5050943;28;20090;-65
2021/06/17 03:42:46;;;;;;;7.78;6.07;;;;;;;;;;5049962;28;20543;-64
2021/06/17 03:45:12;;;;;;;13.18;6.20;;;;;;;;;;5044695;28;20461;-65
2021/06/17 03:47:41;;;;;;;13.30;6.72;;;;;;;;;;5049089;28;20029;-65
2021/06/17 03:50:07;;;;;;;8.60;5.90;;;;;;;;;;5047300;28;20104;-65
2021/06/17 03:52:32;;;;;;;10.70;6.00;;;;;;;;;;5049175;28;20439;-65
2021/06/17 03:54:58;;;;;;;15.90;6.10;;;;;;;;;;5045448;28;20029;-65
2021/06/17 03:57:23;;;;;;;9.35;6.40;;;;;;;;;;5046746;28;20044;-65
2021/06/17 03:59:50;;;;;;;11.23;6.35;;;;;;;;;;5029955;28;20021;-66
2021/06/17 04:02:15;;;;;;;9.10;6.38;;;;;;;;;;5047958;28;20104;-65
2021/06/17 04:04:41;;;;;;;10.02;6.82;;;;;;;;;;5048029;28;20226;-65
2021/06/17 04:07:09;;;;;;;9.73;6.18;;;;;;;;;;5048162;28;20029;-65
2021/06/17 04:09:35;;;;;;;9.38;6.03;;;;;;;;;;5040733;28;20083;-65
2021/06/17 04:12:00;;;;;;;7.97;5.75;;;;;;;;;;5047793;28;20116;-64
2021/06/17 04:14:26;;;;;;;13.77;6.93;;;;;;;;;;5047147;28;20096;-65
2021/06/17 04:16:52;;;;;;;11.23;6.65;;;;;;;;;;5046600;28;20521;-65
2021/06/17 04:19:22;;;;;;;9.88;6.13;;;;;;;;;;5046475;28;20535;-65
2021/06/17 04:21:50;;;;;;;19.35;6.90;;;;;;;;;;5049307;28;20025;-65
2021/06/17 04:24:15;;;;;;;10.02;6.28;;;;;;;;;;5031935;28;20033;-65
2021/06/17 04:26:41;;;;;;;10.52;5.75;;;;;;;;;;5049846;28;20071;-65
2021/06/17 04:29:06;;;;;;;11.35;6.20;;;;;;;;;;5050133;28;20049;-65
2021/06/17 04:31:32;;;;;;;9.00;6.22;;;;;;;;;;5049222;28;20071;-66
2021/06/17 04:33:57;;;;;;;8.70;5.63;;;;;;;;;;5048100;28;20021;-65
2021/06/17 04:36:22;;;;;;;16.05;5.97;;;;;;;;;;5043747;28;20017;-65
2021/06/17 04:38:48;;;;;;;11.00;5.40;;;;;;;;;;5046842;28;20041;-65
2021/06/17 04:41:13;;;;;;;7.55;5.28;;;;;;;;;;5047160;28;20020;-65
2021/06/17 04:43:39;;;;;;;16.38;6.00;;;;;;;;;;5047862;28;20029;-65
2021/06/17 04:46:05;;;;;;;8.57;6.07;;;;;;;;;;5043115;28;20143;-65
2021/06/17 04:48:34;;;;;;;10.20;5.28;;;;;;;;;;5046559;28;20052;-66
2021/06/17 04:50:59;;;;;;;8.38;5.57;;;;;;;;;;5047824;28;20033;-65
2021/06/17 04:53:24;;;;;;;9.95;4.35;;;;;;;;;;5046914;28;20043;-66
2021/06/17 04:55:54;;;;;;;6.70;4.57;;;;;;;;;;5047972;28;20071;-65
2021/06/17 04:58:20;;;;;;;7.60;4.80;;;;;;;;;;5047724;28;20036;-65
2021/06/17 05:00:46;;;;;;;7.55;4.55;;;;;;;;;;5046676;28;20384;-66
2021/06/17 05:03:11;;;;;;;11.20;4.20;;;;;;;;;;5047107;28;20032;-66
2021/06/17 05:05:36;;;;;;;7.07;4.45;;;;;;;;;;5028461;28;20017;-65
2021/06/17 05:10:50;;;;;;;9.00;4.43;;;;;;;;;;5049481;28;20060;-66
2021/06/17 05:13:17;;;;;;;6.15;4.15;;;;;;;;;;5045900;28;20464;-65
2021/06/17 05:15:42;;;;;;;9.18;3.70;;;;;;;;;;5046729;28;20385;-66
2021/06/17 05:18:07;;;;;;;12.23;4.20;;;;;;;;;;5049214;28;20048;-65
2021/06/17 05:20:32;;;;;;;11.77;4.93;;;;;;;;;;5048936;28;20260;-66
2021/06/17 05:22:58;;;;;;;11.70;4.53;;;;;;;;;;5048688;28;20270;-65
2021/06/17 05:25:23;;;;;;;9.60;4.93;;;;;;;;;;5049378;28;20756;-65
2021/06/17 05:27:48;;;;;;;9.77;4.50;;;;;;;;;;5032450;28;20037;-65
2021/06/17 05:30:13;;;;;;;7.63;5.20;;;;;;;;;;5038000;28;20740;-66
2021/06/17 05:32:41;;;;;;;15.20;5.32;;;;;;;;;;5048890;28;20788;-65
2021/06/17 05:35:06;;;;;;;9.20;5.18;;;;;;;;;;5048832;28;20024;-65
2021/06/17 05:37:32;;;;;;;9.48;5.43;;;;;;;;;;5048851;28;20494;-66
2021/06/17 05:39:57;;;;;;;11.73;5.77;;;;;;;;;;5046751;28;20020;-65
2021/06/17 05:42:22;;;;;;;12.47;5.53;;;;;;;;;;5045061;28;20503;-66
2021/06/17 05:44:47;;;;;;;7.70;4.55;;;;;;;;;;5044505;28;20763;-65
2021/06/17 05:47:13;;;;;;;8.73;4.50;;;;;;;;;;5047040;28;20036;-66
2021/06/17 05:49:38;;;;;;;10.40;4.35;;;;;;;;;;5045607;28;20025;-65
2021/06/17 05:52:04;;;;;;;9.25;4.97;;;;;;;;;;5047001;28;20081;-65
2021/06/17 05:54:29;;;;;;;7.30;4.00;;;;;;;;;;5052251;28;20114;-66
2021/06/17 05:56:54;;;;;;;8.45;4.20;;;;;;;;;;5052764;28;20365;-65
2021/06/17 05:59:20;;;;;;;11.20;4.13;;;;;;;;;;5050972;28;20052;-66
2021/06/17 06:01:45;;;;;;;14.20;4.20;;;;;;;;;;5051251;28;20746;-66
2021/06/17 06:04:10;;;;;;;11.80;4.65;;;;;;;;;;5051417;28;20021;-63
2021/06/17 06:06:35;;;;;;;8.80;3.88;;;;;;;;;;5054044;28;20025;-65
2021/06/17 06:09:01;;;;;;;9.20;4.00;;;;;;;;;;5054282;28;20024;-65
2021/06/17 06:11:26;;;;;;;8.10;3.50;;;;;;;;;;5052027;28;20286;-65
2021/06/17 06:13:51;;;;;;;6.43;3.23;;;;;;;;;;5051218;28;20634;-64
2021/06/17 06:16:16;;;;;;;5.32;3.80;;;;;;;;;;5045892;28;20100;-65
2021/06/17 06:18:42;;;;;;;9.13;4.00;;;;;;;;;;5051503;28;20060;-65
2021/06/17 06:21:07;;;;;;;11.33;3.67;;;;;;;;;;5052222;28;20032;-66
2021/06/17 06:23:32;;;;;;;8.10;3.73;;;;;;;;;;5051696;28;20056;-66
2021/06/17 06:25:58;;;;;;;5.13;3.00;;;;;;;;;;5051407;28;20085;-65
2021/06/17 06:28:24;;;;;;;4.35;3.70;;;;;;;;;;5047252;28;20044;-65
2021/06/17 06:30:51;;;;;;;3.83;2.88;;;;;;;;;;5052131;28;20540;-66
2021/06/17 06:33:17;;;;;;;7.32;4.07;;;;;;;;;;5051370;28;20017;-66
2021/06/17 06:35:42;;;;;;;6.00;3.72;;;;;;;;;;5051394;28;20039;-66
2021/06/17 06:38:07;;;;;;;3.83;2.77;;;;;;;;;;5052453;28;20036;-66
2021/06/17 06:40:33;;;;;;;9.63;3.70;;;;;;;;;;5051329;28;20267;-65
2021/06/17 06:42:58;;;;;;;7.70;3.42;;;;;;;;;;5046805;28;20483;-65
2021/06/17 06:45:24;;;;;;;6.53;4.25;;;;;;;;;;5046370;28;20102;-65
2021/06/17 06:47:51;;;;;;;5.38;3.00;;;;;;;;;;5050613;28;20532;-65
2021/06/17 06:50:16;;;;;;;6.10;3.42;;;;;;;;;;5051329;28;20243;-65
2021/06/17 06:52:41;;;;;;;7.25;3.70;;;;;;;;;;5051828;28;20033;-66
2021/06/17 06:55:07;;;;;;;7.80;3.80;;;;;;;;;;5051160;28;20028;-64
2021/06/17 06:57:32;;;;;;;9.60;4.20;;;;;;;;;;5018954;28;20053;-65
2021/06/17 06:59:58;;;;;;;9.05;3.85;;;;;;;;;;5050003;28;20491;-65
2021/06/17 07:02:23;;;;;;;6.20;3.72;;;;;;;;;;5050849;28;20446;-66
2021/06/17 07:04:48;;;;;;;7.57;3.87;;;;;;;;;;5051554;28;20025;-66
2021/06/17 07:07:13;;;;;;;28.38;3.63;;;;;;;;;;5050977;28;20039;-66
2021/06/17 07:09:39;;;;;;;7.15;4.07;;;;;;;;;;5051243;28;20024;-66
2021/06/17 07:12:04;;;;;;;10.25;4.30;;;;;;;;;;5050998;28;20024;-66
2021/06/17 07:14:30;;;;;;;6.60;3.72;;;;;;;;;;5050888;28;20515;-65
2021/06/17 07:16:55;;;;;;;4.53;2.33;;;;;;;;;;5048067;28;20025;-65
2021/06/17 07:19:20;;;;;;;10.23;3.73;;;;;;;;;;5050871;28;20044;-65
2021/06/17 07:21:45;;;;;;;6.83;3.73;;;;;;;;;;5051041;28;20063;-65
2021/06/17 07:26:37;;;;;;;9.27;3.53;;;;;;;;;;5087473;22;20807;-93
2021/06/17 07:29:03;;;;;;;7.55;3.90;;;;;;;;;;5051970;28;20153;-92
2021/06/17 07:31:46;;;;;;;6.53;3.85;;;;;;;;;;5052238;28;20025;-89
2021/06/17 07:34:18;;;;;;;5.30;3.83;;;;;;;;;;5055313;28;20045;-91
2021/06/17 07:36:46;;;;;;;6.38;3.85;;;;;;;;;;5072085;28;20024;-91
2021/06/17 07:39:12;;;;;;;16.63;3.50;;;;;;;;;;5054793;28;20158;-91
2021/06/17 07:41:46;;;;;;;7.38;3.85;;;;;;;;;;5072137;28;20012;-92
2021/06/17 07:47:50;;;;;;;14.52;4.45;;;;;;;;;;5025252;28;20663;-93
2021/06/17 07:50:42;;;;;;;7.55;3.50;;;;;;;;;;5043657;28;20055;-91
2021/06/17 07:53:17;;;;;;;7.82;3.92;;;;;;;;;;4970715;28;20035;-93
2021/06/17 07:55:44;;;;;;;6.75;3.58;;;;;;;;;;4960258;28;20033;-92
2021/06/17 07:58:16;;;;;;;6.57;4.07;;;;;;;;;;4954776;28;20039;-91
2021/06/17 08:00:41;;;;;;;5.97;3.67;;;;;;;;;;4952130;28;20055;-91
2021/06/17 08:03:39;;;;;;;7.70;3.25;;;;;;;;;;4954799;28;20050;-93
2021/06/17 08:06:25;;;;;;;6.82;4.15;;;;;;;;;;4952565;28;20664;-92
2021/06/17 08:08:50;;;;;;;5.97;3.72;;;;;;;;;;4970961;28;20066;-91
2021/06/17 08:11:25;;;;;;;9.70;3.55;;;;;;;;;;5016153;28;20025;-92
2021/06/17 08:13:53;;;;;;;9.13;3.67;;;;;;;;;;5049396;28;20025;-93
2021/06/17 08:16:19;;;;;;;8.55;3.60;;;;;;;;;;5054215;28;20024;-90
2021/06/17 08:19:09;;;;;;;5.03;3.33;;;;;;;;;;5072623;28;20081;-91
2021/06/17 08:22:03;;;;;;;;;;;;;;;;;;;;;
2021/06/17 08:24:29;;;;;;;7.28;4.00;;;;;;;;;;5072006;28;20030;-88
2021/06/17 08:27:04;;;;;;;5.22;2.95;;;;;;;;;;5060045;28;20052;-92
2021/06/17 08:29:38;;;;;;;6.85;3.90;;;;;;;;;;5055528;28;20040;-92
2021/06/17 08:32:04;;;;;;;7.88;3.55;;;;;;;;;;5071741;28;20500;-91
2021/06/17 08:34:29;;;;;;;4.93;3.22;;;;;;;;;;5054961;28;20111;-93
2021/06/17 08:37:16;;;;;;;11.57;4.25;;;;;;;;;;5071985;28;20092;-93
2021/06/17 08:39:59;;;;;;;;;;;;;;;;;;;;;
2021/06/17 08:42:40;;;;;;;8.02;4.22;;;;;;;;;;5056077;28;20038;-92
2021/06/17 08:45:08;;;;;;;6.93;3.03;;;;;;;;;;5050214;28;20108;-89
2021/06/17 08:47:35;;;;;;;6.72;3.00;;;;;;;;;;5072213;28;20025;-91
2021/06/17 08:50:13;;;;;;;5.57;3.00;;;;;;;;;;5052202;28;20012;-91
2021/06/17 08:52:40;;;;;;;6.72;3.65;;;;;;;;;;5071331;28;20020;-91
2021/06/17 08:55:22;;;;;;;7.07;3.67;;;;;;;;;;5070619;28;20025;-91
2021/06/17 08:57:49;;;;;;;6.53;3.97;;;;;;;;;;5070303;28;20046;-90
2021/06/17 09:00:14;;;;;;;41.50;8.00;;;;;;;;;;5047146;28;20109;-90
2021/06/17 09:02:39;;;;;;;11.30;4.32;;;;;;;;;;5052433;28;20632;-92
2021/06/17 09:05:18;;;;;;;11.53;3.83;;;;;;;;;;5051187;28;20044;-92
2021/06/17 09:08:15;;;;;;;5.82;3.70;;;;;;;;;;5071837;28;20841;-93
2021/06/17 09:10:41;;;;;;;4.60;3.60;;;;;;;;;;5054088;28;20048;-91
2021/06/17 09:13:22;;;;;;;11.05;4.18;;;;;;;;;;5054091;28;20465;-91
2021/06/17 09:15:57;;;;;;;5.70;3.33;;;;;;;;;;5054307;28;20020;-90
2021/06/17 09:18:24;;;;;;;3.95;2.80;;;;;;;;;;5043521;28;20028;-92
2021/06/17 09:20:52;;;;;;;8.82;3.53;;;;;;;;;;5056336;28;20095;-92
2021/06/17 09:23:17;;;;;;;6.00;3.55;;;;;;;;;;5054296;28;20547;-92
2021/06/17 09:25:49;;;;;;;10.07;3.37;;;;;;;;;;5055834;28;20028;-90
2021/06/17 09:28:15;;;;;;;11.57;3.83;;;;;;;;;;5058914;28;20369;-91
2021/06/17 09:30:40;;;;;;;5.22;3.38;;;;;;;;;;5061738;28;20020;-93
2021/06/17 09:33:11;;;;;;;10.75;4.00;;;;;;;;;;5080496;28;20016;-95
2021/06/17 09:35:56;;;;;;;6.18;3.53;;;;;;;;;;5081072;28;20021;-93
2021/06/17 09:38:23;;;;;;;11.98;3.92;;;;;;;;;;5080313;28;20051;-93
2021/06/17 09:40:52;;;;;;;9.23;3.78;;;;;;;;;;5099100;28;20013;-93
2021/06/17 09:43:35;;;;;;;12.65;4.68;;;;;;;;;;5080928;28;20023;-94
2021/06/17 09:46:02;;;;;;;6.20;3.55;;;;;;;;;;5078217;28;20024;-92
2021/06/17 09:48:32;;;;;;;9.57;3.30;;;;;;;;;;5045938;28;20025;-90
2021/06/17 09:50:57;;;;;;;7.38;3.38;;;;;;;;;;5049405;28;20020;-91
2021/06/17 09:53:24;;;;;;;8.75;3.25;;;;;;;;;;5077549;28;20518;-90
2021/06/17 09:55:55;;;;;;;7.32;3.85;;;;;;;;;;5075947;28;20095;-90
2021/06/17 09:58:49;;;;;;;;;;;;;;;;;;;;;
2021/06/17 10:01:48;;;;;;;5.47;3.40;;;;;;;;;;5059521;28;20546;-92
2021/06/17 10:04:14;;;;;;;8.00;3.63;;;;;;;;;;5059794;28;20058;-90
2021/06/17 10:06:43;;;;;;;3.97;3.10;;;;;;;;;;5056163;28;20028;-91
2021/06/17 10:09:13;;;;;;;6.05;3.33;;;;;;;;;;5056870;28;20020;-92
2021/06/17 10:11:39;;;;;;;25.13;5.60;;;;;;;;;;5072607;28;20020;-92
2021/06/17 10:14:21;;;;;;;12.00;3.95;;;;;;;;;;5070313;28;20012;-90
2021/06/17 10:16:46;;;;;;;4.07;3.17;;;;;;;;;;5068704;28;20027;-89
2021/06/17 10:19:15;;;;;;;5.88;3.35;;;;;;;;;;5074681;28;20028;-91
2021/06/17 10:21:42;;;;;;;9.82;3.63;;;;;;;;;;5059510;28;20028;-91
2021/06/17 10:24:12;;;;;;;6.30;3.05;;;;;;;;;;5056815;28;20559;-91
2021/06/17 10:26:57;;;;;;;6.00;3.58;;;;;;;;;;5057076;28;20038;-91
2021/06/17 10:29:33;;;;;;;12.00;4.30;;;;;;;;;;5058759;28;20024;-92
2021/06/17 10:31:59;;;;;;;7.95;3.13;;;;;;;;;;5058511;28;20021;-90
2021/06/17 10:34:30;;;;;;;11.80;4.18;;;;;;;;;;5056942;28;20070;-90
2021/06/17 10:40:09;;;;;;;19.02;4.75;;;;;;;;;;4983150;28;20118;-91
2021/06/17 10:42:37;;;;;;;3.60;3.10;;;;;;;;;;4975593;28;20038;-91
2021/06/17 10:45:39;;;;;;;6.50;3.85;;;;;;;;;;4989822;28;20098;-91
2021/06/17 10:48:16;;;;;;;5.72;3.40;;;;;;;;;;4961215;28;20027;-92
2021/06/17 10:51:00;;;;;;;7.65;3.78;;;;;;;;;;5001280;28;20034;-90
2021/06/17 10:53:50;;;;;;;6.40;3.33;;;;;;;;;;5073979;28;20025;-91
2021/06/17 10:56:32;;;;;;;5.30;3.33;;;;;;;;;;5056234;28;20032;-90
2021/06/17 10:58:57;;;;;;;5.53;3.88;;;;;;;;;;5057459;28;20031;-91
2021/06/17 11:01:28;;;;;;;5.95;3.28;;;;;;;;;;5065106;28;20080;-91
2021/06/17 11:04:05;;;;;;;3.28;2.35;;;;;;;;;;5067457;28;20046;-91
2021/06/17 11:06:52;;;;;;;5.35;3.20;;;;;;;;;;5077789;28;20054;-92
2021/06/17 11:09:36;;;;;;;3.28;2.10;;;;;;;;;;5082538;23;20163;-65
2021/06/17 11:12:02;;;;;;;4.80;2.92;;;;;;;;;;5062068;28;20463;-65
2021/06/17 11:14:37;;;;;;;4.13;3.00;;;;;;;;;;5064388;28;20039;-65
2021/06/17 11:17:22;;;;;;;3.97;2.78;;;;;;;;;;5062811;28;20758;-65
2021/06/17 11:20:10;;;;;;;4.55;2.78;;;;;;;;;;5034710;28;20029;-65
2021/06/17 11:22:39;;;;;;;10.65;2.83;;;;;;;;;;5051106;28;20115;-65
2021/06/17 11:25:19;;;;;;;6.28;2.55;;;;;;;;;;5049955;28;20028;-65
2021/06/17 11:27:56;;;;;;;9.52;2.60;;;;;;;;;;5051229;28;20037;-65
2021/06/17 11:30:37;;;;;;;9.60;2.63;;;;;;;;;;5039283;28;20017;-65
2021/06/17 11:33:14;;;;;;;11.02;3.08;;;;;;;;;;5050399;28;20017;-65
2021/06/17 11:35:39;;;;;;;9.23;3.10;;;;;;;;;;5050916;28;20561;-65
2021/06/17 11:38:05;;;;;;;4.30;2.65;;;;;;;;;;5049741;28;20112;-65
2021/06/17 11:40:31;;;;;;;4.80;2.25;;;;;;;;;;5050376;28;20418;-65
2021/06/17 11:42:57;;;;;;;8.02;2.30;;;;;;;;;;5049304;28;20596;-65
2021/06/17 11:45:30;;;;;;;3.35;2.45;;;;;;;;;;5043715;28;20078;-65
2021/06/17 11:47:55;;;;;;;29.83;4.55;;;;;;;;;;5049690;28;20025;-65
2021/06/17 11:50:20;;;;;;;5.33;2.73;;;;;;;;;;5049825;28;20530;-65
2021/06/17 11:52:46;;;;;;;2.97;2.30;;;;;;;;;;5051172;28;20024;-65
2021/06/17 11:55:11;;;;;;;13.82;3.08;;;;;;;;;;5050091;28;20029;-65
2021/06/17 11:57:39;;;;;;;4.75;2.58;;;;;;;;;;5050046;28;20479;-65
2021/06/17 12:00:06;;;;;;;3.28;2.53;;;;;;;;;;5049599;28;20033;-65
2021/06/17 12:02:31;;;;;;;7.22;2.83;;;;;;;;;;5048289;28;20028;-65
2021/06/17 12:05:04;;;;;;;4.05;2.63;;;;;;;;;;5050194;28;20107;-65
2021/06/17 12:07:36;;;;;;;7.97;3.90;;;;;;;;;;5050308;28;20403;-65
2021/06/17 12:10:05;;;;;;;7.22;3.40;;;;;;;;;;5049852;28;20509;-65
2021/06/17 12:12:30;;;;;;;7.38;3.50;;;;;;;;;;5049437;28;20024;-65
2021/06/17 12:14:56;;;;;;;5.63;2.45;;;;;;;;;;5043749;28;20029;-65
2021/06/17 12:17:48;;;;;;;5.75;3.28;;;;;;;;;;5041720;28;20028;-65
2021/06/17 12:20:14;;;;;;;4.07;2.15;;;;;;;;;;5037959;28;20082;-65
2021/06/17 12:22:41;;;;;;;8.05;3.15;;;;;;;;;;5050155;28;20028;-65
2021/06/17 12:25:07;;;;;;;7.68;3.75;;;;;;;;;;5049032;28;20398;-65
2021/06/17 12:27:32;;;;;;;3.85;3.45;;;;;;;;;;5048082;28;20017;-65
2021/06/17 12:30:17;;;;;;;9.88;4.20;;;;;;;;;;5049275;28;20032;-65
2021/06/17 12:32:42;;;;;;;6.03;3.08;;;;;;;;;;5048651;28;20611;-65
2021/06/17 12:35:08;;;;;;;12.67;3.97;;;;;;;;;;5049205;28;20096;-65
2021/06/17 12:37:49;;;;;;;13.88;3.75;;;;;;;;;;5034872;28;20052;-65
2021/06/17 12:40:25;;;;;;;6.85;3.55;;;;;;;;;;5031239;28;20044;-65
2021/06/17 12:43:03;;;;;;;6.88;3.95;;;;;;;;;;5032098;28;20100;-65
2021/06/17 12:45:28;;;;;;;6.97;3.88;;;;;;;;;;5027261;28;20479;-65
2021/06/17 12:47:54;;;;;;;13.33;4.37;;;;;;;;;;5049121;28;20043;-65
2021/06/17 12:53:07;;;;;;;9.63;5.43;;;;;;;;;;5049488;28;20063;-65
2021/06/17 12:55:36;;;;;;;11.23;3.90;;;;;;;;;;5048472;28;20052;-65
2021/06/17 12:58:01;;;;;;;3.78;2.88;;;;;;;;;;5049403;28;20259;-65
2021/06/17 13:00:26;;;;;;;9.83;4.63;;;;;;;;;;5053477;28;20024;-65
2021/06/17 13:02:53;;;;;;;4.47;3.00;;;;;;;;;;5049125;28;20040;-65
2021/06/17 13:05:20;;;;;;;11.90;6.28;;;;;;;;;;5052734;28;20109;-65
2021/06/17 13:08:04;;;;;;;6.78;4.47;;;;;;;;;;5053103;28;20025;-65
2021/06/17 13:10:31;;;;;;;10.23;5.00;;;;;;;;;;5052558;28;20029;-65
2021/06/17 13:13:13;;;;;;;7.35;5.07;;;;;;;;;;5053101;28;20505;-65
2021/06/17 13:15:38;;;;;;;13.25;7.03;;;;;;;;;;5053193;28;20115;-65
2021/06/17 13:18:04;;;;;;;16.60;5.78;;;;;;;;;;5049644;28;20108;-65
2021/06/17 13:20:31;;;;;;;11.98;6.10;;;;;;;;;;5047271;28;20037;-65
2021/06/17 13:22:57;;;;;;;6.22;4.43;;;;;;;;;;5053882;28;20028;-65
2021/06/17 13:25:22;;;;;;;10.65;5.65;;;;;;;;;;5051117;28;20108;-65
2021/06/17 13:27:48;;;;;;;10.10;5.53;;;;;;;;;;5045457;28;20113;-65
2021/06/17 13:30:13;;;;;;;11.50;5.35;;;;;;;;;;5047117;28;20086;-65
2021/06/17 13:32:38;;;;;;;7.13;5.57;;;;;;;;;;5052961;28;20028;-65
2021/06/17 13:35:04;;;;;;;13.27;5.90;;;;;;;;;;5052739;28;20036;-65
2021/06/17 13:37:30;;;;;;;10.85;4.90;;;;;;;;;;5052875;28;20044;-65
2021/06/17 13:39:55;;;;;;;12.63;5.93;;;;;;;;;;5052922;28;20036;-65
2021/06/17 13:42:20;;;;;;;9.27;5.40;;;;;;;;;;5052881;28;20035;-65
2021/06/17 13:44:50;;;;;;;11.55;5.53;;;;;;;;;;5052642;28;20398;-65
2021/06/17 13:47:15;;;;;;;;;;;;;;;;;;5052292;28;20074;-65
2021/06/17 13:49:44;;;;;;;9.30;4.45;;;;;;;;;;5052939;28;19948;-65
2021/06/17 13:52:09;;;;;;;7.13;3.97;;;;;;;;;;5052880;28;20025;-65
2021/06/17 13:54:34;;;;;;;6.18;3.92;;;;;;;;;;5052973;28;20036;-65
2021/06/17 13:56:59;;;;;;;9.73;4.72;;;;;;;;;;5052886;28;20379;-65
2021/06/17 13:59:25;;;;;;;6.83;4.30;;;;;;;;;;5053167;28;20078;-65
2021/06/17 14:01:50;;;;;;;9.37;4.60;;;;;;;;;;5052850;28;20109;-65
2021/06/17 14:04:18;;;;;;;7.80;5.73;;;;;;;;;;5051757;28;20040;-65
2021/06/17 14:06:44;;;;;;;8.60;4.75;;;;;;;;;;5052405;28;20017;-65
2021/06/17 14:09:09;;;;;;;10.02;5.80;;;;;;;;;;5052041;28;20021;-65
2021/06/17 14:11:34;;;;;;;10.17;5.73;;;;;;;;;;5051871;28;20029;-65
2021/06/17 14:13:59;;;;;;;8.03;6.03;;;;;;;;;;5052639;28;20052;-65
2021/06/17 14:16:24;;;;;;;11.17;6.13;;;;;;;;;;5052252;28;20398;-65
2021/06/17 14:18:50;;;;;;;9.95;5.50;;;;;;;;;;5051842;28;20811;-65
2021/06/17 14:21:15;;;;;;;10.05;6.22;;;;;;;;;;5052130;28;20025;-65
2021/06/17 14:23:40;;;;;;;9.33;6.50;;;;;;;;;;5051999;28;20051;-65
2021/06/17 14:26:05;;;;;;;11.63;6.10;;;;;;;;;;5048721;28;20370;-65
2021/06/17 14:28:30;;;;;;;13.83;6.23;;;;;;;;;;5052818;28;20655;-65
2021/06/17 14:30:56;;;;;;;11.23;6.00;;;;;;;;;;5052150;28;20021;-65
2021/06/17 14:33:21;;;;;;;18.40;6.13;;;;;;;;;;5052261;28;20463;-65
2021/06/17 14:35:46;;;;;;;8.63;5.45;;;;;;;;;;5051778;28;20108;-65
2021/06/17 14:38:11;;;;;;;14.80;6.13;;;;;;;;;;5051363;28;20086;-65
2021/06/17 14:40:37;;;;;;;16.10;5.77;;;;;;;;;;5036507;28;20025;-65
2021/06/17 14:43:03;;;;;;;15.15;5.28;;;;;;;;;;5052212;28;20264;-65
2021/06/17 14:45:28;;;;;;;9.32;4.95;;;;;;;;;;5051704;28;20021;-65
2021/06/17 14:47:53;;;;;;;9.50;5.63;;;;;;;;;;5052143;28;20514;-65
2021/06/17 14:50:19;;;;;;;16.65;4.95;;;;;;;;;;5049558;28;20020;-65
2021/06/17 14:52:44;;;;;;;15.00;5.90;;;;;;;;;;5051869;28;20088;-65
2021/06/17 14:55:10;;;;;;;10.95;5.60;;;;;;;;;;5050341;28;20017;-65
2021/06/17 14:57:35;;;;;;;7.68;5.45;;;;;;;;;;5041235;28;20028;-65
2021/06/17 15:00:00;;;;;;;15.10;5.73;;;;;;;;;;5051444;28;20025;-65
2021/06/17 15:02:25;;;;;;;14.07;5.10;;;;;;;;;;5042333;28;20275;-65
2021/06/17 15:04:51;;;;;;;9.70;5.60;;;;;;;;;;5051295;28;20056;-65
2021/06/17 15:07:17;;;;;;;14.97;5.83;;;;;;;;;;5050553;28;20032;-65